createdAt,value
2017-12-04T01:38:11.776Z,1021.01
2017-12-04T01:38:12.352Z,1021.06
2017-12-04T01:38:12.951Z,1021.02
2017-12-04T01:38:13.552Z,1021.05
2017-12-04T01:38:14.152Z,1021.06
2017-12-04T01:38:14.750Z,1021.04
2017-12-04T01:38:15.349Z,1021.04
2017-12-04T01:38:15.949Z,1021.06
2017-12-04T01:39:10.454Z,1021.12
2017-12-04T01:39:11.028Z,1021.10
2017-12-04T01:39:11.627Z,1021.10
2017-12-04T01:39:12.227Z,1021.11
2017-12-04T01:39:12.826Z,1021.10
2017-12-04T01:39:13.430Z,1021.11
2017-12-04T01:39:14.026Z,1021.11
2017-12-04T01:39:14.625Z,1021.10
2017-12-04T01:40:08.109Z,1021.11
2017-12-04T01:40:08.680Z,1021.06
2017-12-04T01:40:09.279Z,1021.09
2017-12-04T01:40:09.881Z,1021.11
2017-12-04T01:40:10.479Z,1021.10
2017-12-04T01:40:11.079Z,1021.10
2017-12-04T01:40:11.678Z,1021.10
2017-12-04T01:40:12.278Z,1021.09
2017-12-04T01:41:06.783Z,1021.05
2017-12-04T01:41:07.356Z,1021.05
2017-12-04T01:41:07.959Z,1021.04
2017-12-04T01:41:08.556Z,1021.08
2017-12-04T01:41:09.155Z,1021.03
2017-12-04T01:41:09.756Z,1021.07
2017-12-04T01:41:10.359Z,1021.06
2017-12-04T01:41:10.954Z,1021.03
2017-12-04T01:42:05.456Z,1021.02
2017-12-04T01:42:06.032Z,1021.07
2017-12-04T01:42:06.632Z,1021.03
2017-12-04T01:42:07.231Z,1021.06
2017-12-04T01:42:07.833Z,1021.04
2017-12-04T01:42:08.431Z,1021.04
2017-12-04T01:42:09.030Z,1021.02
2017-12-04T01:42:09.630Z,1021.04
2017-12-04T01:43:03.110Z,1021.04
2017-12-04T01:43:03.685Z,1021.05
2017-12-04T01:43:04.285Z,1021.07
2017-12-04T01:43:04.887Z,1021.05
2017-12-04T01:43:05.484Z,1021.08
2017-12-04T01:43:06.090Z,1021.03
2017-12-04T01:43:06.684Z,1021.05
2017-12-04T01:43:07.284Z,1021.05
2017-12-04T01:44:00.764Z,1021.07
2017-12-04T01:44:01.339Z,1021.09
2017-12-04T01:44:01.938Z,1021.07
2017-12-04T01:44:02.538Z,1021.08
2017-12-04T01:44:03.136Z,1021.07
2017-12-04T01:44:03.735Z,1021.06
2017-12-04T01:44:04.336Z,1021.06
2017-12-04T01:44:04.936Z,1021.09
2017-12-04T01:44:59.440Z,1021.08
2017-12-04T01:45:00.013Z,1021.04
2017-12-04T01:45:00.612Z,1021.03
2017-12-04T01:45:01.213Z,1021.09
2017-12-04T01:45:01.812Z,1021.06
2017-12-04T01:45:02.411Z,1021.07
2017-12-04T01:45:03.011Z,1021.08
2017-12-04T01:45:03.618Z,1021.07
2017-12-04T01:45:58.112Z,1021.06
2017-12-04T01:45:58.687Z,1021.06
2017-12-04T01:45:59.288Z,1021.05
2017-12-04T01:45:59.889Z,1021.07
2017-12-04T01:46:00.486Z,1021.08
2017-12-04T01:46:01.086Z,1021.11
2017-12-04T01:46:01.686Z,1021.05
2017-12-04T01:46:02.288Z,1021.09
2017-12-04T01:46:55.766Z,1021.09
2017-12-04T01:46:56.341Z,1021.10
2017-12-04T01:46:56.940Z,1021.13
2017-12-04T01:46:57.540Z,1021.12
2017-12-04T01:46:58.139Z,1021.10
2017-12-04T01:46:58.740Z,1021.12
2017-12-04T01:46:59.340Z,1021.11
2017-12-04T01:46:59.946Z,1021.10
2017-12-04T01:47:53.418Z,1021.12
2017-12-04T01:47:53.992Z,1021.13
2017-12-04T01:47:54.602Z,1021.14
2017-12-04T01:47:55.191Z,1021.12
2017-12-04T01:47:55.792Z,1021.15
2017-12-04T01:47:56.392Z,1021.14
2017-12-04T01:47:56.998Z,1021.13
2017-12-04T01:47:57.591Z,1021.16
2017-12-04T01:48:51.068Z,1021.12
2017-12-04T01:48:51.643Z,1021.11
2017-12-04T01:48:52.243Z,1021.16
2017-12-04T01:48:52.843Z,1021.13
2017-12-04T01:48:53.443Z,1021.17
2017-12-04T01:48:54.042Z,1021.19
2017-12-04T01:48:54.642Z,1021.18
2017-12-04T01:48:55.242Z,1021.17
2017-12-04T01:49:48.721Z,1021.10
2017-12-04T01:49:49.296Z,1021.10
2017-12-04T01:49:49.895Z,1021.13
2017-12-04T01:49:50.495Z,1021.13
2017-12-04T01:49:51.094Z,1021.10
2017-12-04T01:49:51.695Z,1021.10
2017-12-04T01:49:52.295Z,1021.15
2017-12-04T01:49:52.895Z,1021.13
2017-12-04T01:50:46.373Z,1021.16
2017-12-04T01:50:46.946Z,1021.10
2017-12-04T01:50:47.548Z,1021.14
2017-12-04T01:50:48.146Z,1021.11
2017-12-04T01:50:48.746Z,1021.08
2017-12-04T01:50:49.347Z,1021.14
2017-12-04T01:50:49.947Z,1021.13
2017-12-04T01:50:50.546Z,1021.11
2017-12-04T01:51:45.048Z,1021.19
2017-12-04T01:51:45.622Z,1021.24
2017-12-04T01:51:46.222Z,1021.21
2017-12-04T01:51:46.826Z,1021.18
2017-12-04T01:51:47.422Z,1021.17
2017-12-04T01:51:48.020Z,1021.24
2017-12-04T01:51:48.621Z,1021.19
2017-12-04T01:51:49.223Z,1021.21
2017-12-04T01:52:43.723Z,1021.19
2017-12-04T01:52:44.298Z,1021.19
2017-12-04T01:52:44.901Z,1021.17
2017-12-04T01:52:45.498Z,1021.16
2017-12-04T01:52:46.099Z,1021.16
2017-12-04T01:52:46.698Z,1021.19
2017-12-04T01:52:47.298Z,1021.19
2017-12-04T01:52:47.897Z,1021.17
2017-12-04T01:53:42.399Z,1021.13
2017-12-04T01:53:42.974Z,1021.14
2017-12-04T01:53:43.578Z,1021.16
2017-12-04T01:53:44.174Z,1021.19
2017-12-04T01:53:44.774Z,1021.18
2017-12-04T01:53:45.374Z,1021.13
2017-12-04T01:53:45.973Z,1021.15
2017-12-04T01:53:46.573Z,1021.15
2017-12-04T01:54:41.074Z,1021.21
2017-12-04T01:54:41.649Z,1021.24
2017-12-04T01:54:42.249Z,1021.20
2017-12-04T01:54:42.849Z,1021.20
2017-12-04T01:54:43.449Z,1021.22
2017-12-04T01:54:44.048Z,1021.23
2017-12-04T01:54:44.648Z,1021.21
2017-12-04T01:54:45.248Z,1021.22
2017-12-04T01:55:38.727Z,1021.23
2017-12-04T01:55:39.302Z,1021.22
2017-12-04T01:55:39.901Z,1021.22
2017-12-04T01:55:40.502Z,1021.25
2017-12-04T01:55:41.100Z,1021.22
2017-12-04T01:55:41.702Z,1021.25
2017-12-04T01:55:42.300Z,1021.21
2017-12-04T01:55:42.901Z,1021.27
2017-12-04T01:56:37.402Z,1021.22
2017-12-04T01:56:37.976Z,1021.23
2017-12-04T01:56:38.576Z,1021.22
2017-12-04T01:56:39.177Z,1021.25
2017-12-04T01:56:39.776Z,1021.22
2017-12-04T01:56:40.379Z,1021.23
2017-12-04T01:56:40.975Z,1021.20
2017-12-04T01:56:41.575Z,1021.21
2017-12-04T01:57:35.055Z,1021.15
2017-12-04T01:57:35.629Z,1021.17
2017-12-04T01:57:36.230Z,1021.14
2017-12-04T01:57:36.828Z,1021.19
2017-12-04T01:57:37.429Z,1021.18
2017-12-04T01:57:38.029Z,1021.16
2017-12-04T01:57:38.627Z,1021.15
2017-12-04T01:57:39.228Z,1021.18
2017-12-04T01:58:32.706Z,1021.19
2017-12-04T01:58:33.285Z,1021.18
2017-12-04T01:58:33.880Z,1021.16
2017-12-04T01:58:34.480Z,1021.16
2017-12-04T01:58:35.079Z,1021.18
2017-12-04T01:58:35.680Z,1021.19
2017-12-04T01:58:36.279Z,1021.16
2017-12-04T01:58:36.878Z,1021.14
2017-12-04T01:59:30.358Z,1021.22
2017-12-04T01:59:30.934Z,1021.21
2017-12-04T01:59:31.532Z,1021.22
2017-12-04T01:59:32.136Z,1021.21
2017-12-04T01:59:32.733Z,1021.22
2017-12-04T01:59:33.331Z,1021.21
2017-12-04T01:59:33.934Z,1021.21
2017-12-04T01:59:34.532Z,1021.22
2017-12-04T02:00:28.010Z,1021.26
2017-12-04T02:00:28.585Z,1021.25
2017-12-04T02:00:29.184Z,1021.24
2017-12-04T02:00:29.785Z,1021.26
2017-12-04T02:00:30.384Z,1021.24
2017-12-04T02:00:30.984Z,1021.22
2017-12-04T02:00:31.585Z,1021.23
2017-12-04T02:00:32.187Z,1021.24
2017-12-04T02:01:25.663Z,1021.20
2017-12-04T02:01:26.236Z,1021.17
2017-12-04T02:01:26.837Z,1021.22
2017-12-04T02:01:27.436Z,1021.20
2017-12-04T02:01:28.034Z,1021.18
2017-12-04T02:01:28.636Z,1021.16
2017-12-04T02:01:29.242Z,1021.20
2017-12-04T02:01:29.833Z,1021.14
2017-12-04T02:02:23.312Z,1021.15
2017-12-04T02:02:23.888Z,1021.16
2017-12-04T02:02:24.487Z,1021.14
2017-12-04T02:02:25.087Z,1021.14
2017-12-04T02:02:25.687Z,1021.15
2017-12-04T02:02:26.287Z,1021.15
2017-12-04T02:02:26.888Z,1021.17
2017-12-04T02:02:27.487Z,1021.19
2017-12-04T02:03:20.964Z,1021.21
2017-12-04T02:03:21.543Z,1021.18
2017-12-04T02:03:22.138Z,1021.21
2017-12-04T02:03:22.739Z,1021.18
2017-12-04T02:03:23.340Z,1021.24
2017-12-04T02:03:23.940Z,1021.19
2017-12-04T02:03:24.541Z,1021.23
2017-12-04T02:03:25.139Z,1021.23
2017-12-04T02:04:18.665Z,1021.24
2017-12-04T02:04:19.191Z,1021.23
2017-12-04T02:04:19.790Z,1021.25
2017-12-04T02:04:21.170Z,1021.25
2017-12-04T02:04:21.673Z,1021.25
2017-12-04T02:04:22.272Z,1021.25
2017-12-04T02:04:22.872Z,1021.23
2017-12-04T02:05:16.376Z,1021.23
2017-12-04T02:05:16.945Z,1021.19
2017-12-04T02:05:17.546Z,1021.23
2017-12-04T02:05:18.145Z,1021.21
2017-12-04T02:05:18.794Z,1021.22
2017-12-04T02:05:19.343Z,1021.24
2017-12-04T02:05:19.946Z,1021.24
2017-12-04T02:05:20.543Z,1021.24
2017-12-04T02:06:14.041Z,1021.24
2017-12-04T02:06:14.597Z,1021.25
2017-12-04T02:06:15.196Z,1021.24
2017-12-04T02:06:15.796Z,1021.25
2017-12-04T02:06:16.395Z,1021.26
2017-12-04T02:06:16.995Z,1021.24
2017-12-04T02:06:17.596Z,1021.22
2017-12-04T02:06:18.195Z,1021.26
2017-12-04T02:07:12.696Z,1021.16
2017-12-04T02:07:13.271Z,1021.19
2017-12-04T02:07:13.871Z,1021.22
2017-12-04T02:07:14.471Z,1021.23
2017-12-04T02:07:15.071Z,1021.20
2017-12-04T02:07:15.670Z,1021.19
2017-12-04T02:07:16.270Z,1021.20
2017-12-04T02:07:16.870Z,1021.21
2017-12-04T02:08:11.372Z,1021.22
2017-12-04T02:08:11.947Z,1021.25
2017-12-04T02:08:12.552Z,1021.23
2017-12-04T02:08:13.149Z,1021.22
2017-12-04T02:08:13.747Z,1021.21
2017-12-04T02:08:14.346Z,1021.18
2017-12-04T02:08:14.946Z,1021.20
2017-12-04T02:08:15.546Z,1021.23
2017-12-04T02:09:09.024Z,1021.25
2017-12-04T02:09:09.607Z,1021.24
2017-12-04T02:09:10.200Z,1021.26
2017-12-04T02:09:10.800Z,1021.25
2017-12-04T02:09:11.404Z,1021.25
2017-12-04T02:09:11.999Z,1021.25
2017-12-04T02:09:12.600Z,1021.24
2017-12-04T02:09:13.200Z,1021.25
2017-12-04T02:10:07.702Z,1021.23
2017-12-04T02:10:08.273Z,1021.25
2017-12-04T02:10:08.874Z,1021.22
2017-12-04T02:10:09.474Z,1021.22
2017-12-04T02:10:10.073Z,1021.26
2017-12-04T02:10:10.674Z,1021.22
2017-12-04T02:10:11.274Z,1021.20
2017-12-04T02:10:11.873Z,1021.24
2017-12-04T02:11:05.351Z,1021.19
2017-12-04T02:11:05.927Z,1021.18
2017-12-04T02:11:06.528Z,1021.21
2017-12-04T02:11:07.130Z,1021.21
2017-12-04T02:11:07.726Z,1021.18
2017-12-04T02:11:08.325Z,1021.20
2017-12-04T02:11:08.925Z,1021.20
2017-12-04T02:11:09.524Z,1021.21
2017-12-04T02:12:03.003Z,1021.19
2017-12-04T02:12:03.584Z,1021.25
2017-12-04T02:12:04.179Z,1021.23
2017-12-04T02:12:04.778Z,1021.20
2017-12-04T02:12:05.379Z,1021.23
2017-12-04T02:12:05.981Z,1021.21
2017-12-04T02:12:06.578Z,1021.22
2017-12-04T02:12:07.177Z,1021.22
2017-12-04T02:13:00.655Z,1021.22
2017-12-04T02:13:01.230Z,1021.18
2017-12-04T02:13:01.830Z,1021.23
2017-12-04T02:13:02.429Z,1021.22
2017-12-04T02:13:03.029Z,1021.24
2017-12-04T02:13:03.629Z,1021.22
2017-12-04T02:13:04.231Z,1021.24
2017-12-04T02:13:04.829Z,1021.25
2017-12-04T02:13:58.306Z,1021.20
2017-12-04T02:13:58.882Z,1021.21
2017-12-04T02:13:59.482Z,1021.20
2017-12-04T02:14:00.082Z,1021.21
2017-12-04T02:14:00.682Z,1021.17
2017-12-04T02:14:01.282Z,1021.18
2017-12-04T02:14:01.886Z,1021.14
2017-12-04T02:14:02.482Z,1021.20
2017-12-04T02:14:56.982Z,1021.18
2017-12-04T02:14:57.557Z,1021.18
2017-12-04T02:14:58.173Z,1021.14
2017-12-04T02:14:58.758Z,1021.17
2017-12-04T02:14:59.358Z,1021.18
2017-12-04T02:14:59.957Z,1021.19
2017-12-04T02:15:00.556Z,1021.20
2017-12-04T02:15:01.158Z,1021.17
2017-12-04T02:15:54.642Z,1021.15
2017-12-04T02:15:55.209Z,1021.17
2017-12-04T02:15:55.810Z,1021.12
2017-12-04T02:15:56.409Z,1021.16
2017-12-04T02:15:57.015Z,1021.19
2017-12-04T02:15:57.608Z,1021.13
2017-12-04T02:15:58.209Z,1021.14
2017-12-04T02:15:58.808Z,1021.19
2017-12-04T02:16:53.311Z,1021.13
2017-12-04T02:16:53.884Z,1021.11
2017-12-04T02:16:54.486Z,1021.14
2017-12-04T02:16:55.083Z,1021.15
2017-12-04T02:16:55.683Z,1021.16
2017-12-04T02:16:56.284Z,1021.16
2017-12-04T02:16:56.884Z,1021.12
2017-12-04T02:16:57.482Z,1021.14
2017-12-04T02:17:50.961Z,1021.13
2017-12-04T02:17:51.537Z,1021.15
2017-12-04T02:17:52.137Z,1021.14
2017-12-04T02:17:52.737Z,1021.15
2017-12-04T02:17:53.336Z,1021.12
2017-12-04T02:17:53.936Z,1021.12
2017-12-04T02:17:54.538Z,1021.07
2017-12-04T02:17:55.143Z,1021.14
2017-12-04T02:18:48.613Z,1021.13
2017-12-04T02:18:49.192Z,1021.12
2017-12-04T02:18:49.787Z,1021.16
2017-12-04T02:18:50.388Z,1021.14
2017-12-04T02:18:50.988Z,1021.15
2017-12-04T02:18:51.593Z,1021.12
2017-12-04T02:18:52.188Z,1021.09
2017-12-04T02:18:52.786Z,1021.10
2017-12-04T02:19:46.265Z,1021.15
2017-12-04T02:19:46.840Z,1021.15
2017-12-04T02:19:47.439Z,1021.13
2017-12-04T02:19:48.039Z,1021.12
2017-12-04T02:19:48.648Z,1021.12
2017-12-04T02:19:49.244Z,1021.11
2017-12-04T02:19:49.839Z,1021.15
2017-12-04T02:19:50.440Z,1021.15
2017-12-04T02:20:43.917Z,1021.19
2017-12-04T02:20:44.492Z,1021.16
2017-12-04T02:20:45.096Z,1021.14
2017-12-04T02:20:45.690Z,1021.18
2017-12-04T02:20:46.292Z,1021.20
2017-12-04T02:20:46.893Z,1021.17
2017-12-04T02:20:47.492Z,1021.16
2017-12-04T02:20:48.090Z,1021.18
2017-12-04T02:21:41.568Z,1021.10
2017-12-04T02:21:42.142Z,1021.09
2017-12-04T02:21:42.743Z,1021.08
2017-12-04T02:21:43.343Z,1021.07
2017-12-04T02:21:43.942Z,1021.10
2017-12-04T02:21:44.542Z,1021.07
2017-12-04T02:21:45.143Z,1021.08
2017-12-04T02:21:45.742Z,1021.07
2017-12-04T02:22:40.245Z,1021.08
2017-12-04T02:22:40.819Z,1021.05
2017-12-04T02:22:41.417Z,1021.06
2017-12-04T02:22:42.017Z,1021.08
2017-12-04T02:22:42.670Z,1021.08
2017-12-04T02:22:43.217Z,1021.09
2017-12-04T02:22:43.818Z,1021.11
2017-12-04T02:22:44.416Z,1021.07
2017-12-04T02:23:37.896Z,1021.08
2017-12-04T02:23:38.470Z,1021.10
2017-12-04T02:23:39.070Z,1021.11
2017-12-04T02:23:39.670Z,1021.08
2017-12-04T02:23:40.273Z,1021.11
2017-12-04T02:23:40.870Z,1021.12
2017-12-04T02:23:41.469Z,1021.09
2017-12-04T02:23:42.069Z,1021.09
2017-12-04T02:24:35.552Z,1021.06
2017-12-04T02:24:36.123Z,1021.04
2017-12-04T02:24:36.721Z,1021.04
2017-12-04T02:24:37.320Z,1021.05
2017-12-04T02:24:37.922Z,1021.06
2017-12-04T02:24:38.520Z,1021.05
2017-12-04T02:24:39.121Z,1021.06
2017-12-04T02:24:39.721Z,1021.05
2017-12-04T02:25:34.223Z,1021.02
2017-12-04T02:25:34.798Z,1020.98
2017-12-04T02:25:35.397Z,1021.03
2017-12-04T02:25:35.996Z,1021.03
2017-12-04T02:25:36.596Z,1021.04
2017-12-04T02:25:37.196Z,1021.04
2017-12-04T02:25:37.799Z,1021.07
2017-12-04T02:25:38.396Z,1021.02
2017-12-04T02:26:31.874Z,1020.98
2017-12-04T02:26:32.450Z,1021.03
2017-12-04T02:26:33.049Z,1021.00
2017-12-04T02:26:33.649Z,1021.01
2017-12-04T02:26:34.249Z,1021.03
2017-12-04T02:26:34.849Z,1021.02
2017-12-04T02:26:35.449Z,1020.98
2017-12-04T02:26:36.048Z,1020.98
2017-12-04T02:27:30.549Z,1021.04
2017-12-04T02:27:31.124Z,1021.01
2017-12-04T02:27:31.723Z,1021.04
2017-12-04T02:27:32.325Z,1021.02
2017-12-04T02:27:32.924Z,1021.03
2017-12-04T02:27:33.525Z,1021.02
2017-12-04T02:27:34.125Z,1021.01
2017-12-04T02:27:34.723Z,1021.03
2017-12-04T02:28:28.202Z,1021.00
2017-12-04T02:28:28.777Z,1021.02
2017-12-04T02:28:29.375Z,1021.02
2017-12-04T02:28:29.976Z,1020.97
2017-12-04T02:28:30.575Z,1021.00
2017-12-04T02:28:31.180Z,1021.00
2017-12-04T02:28:31.778Z,1020.98
2017-12-04T02:28:32.376Z,1021.01
2017-12-04T02:29:25.854Z,1021.01
2017-12-04T02:29:26.428Z,1021.06
2017-12-04T02:29:27.028Z,1021.07
2017-12-04T02:29:27.627Z,1021.02
2017-12-04T02:29:28.227Z,1021.02
2017-12-04T02:29:28.828Z,1021.03
2017-12-04T02:29:29.429Z,1021.04
2017-12-04T02:29:30.027Z,1021.02
2017-12-04T02:30:24.529Z,1021.00
2017-12-04T02:30:25.102Z,1020.97
2017-12-04T02:30:25.701Z,1021.02
2017-12-04T02:30:26.304Z,1021.01
2017-12-04T02:30:26.904Z,1021.01
2017-12-04T02:30:27.506Z,1021.07
2017-12-04T02:30:28.101Z,1021.01
2017-12-04T02:30:28.703Z,1021.04
2017-12-04T02:31:23.208Z,1021.03
2017-12-04T02:31:23.782Z,1021.00
2017-12-04T02:31:24.378Z,1021.00
2017-12-04T02:31:24.978Z,1021.00
2017-12-04T02:31:25.579Z,1020.99
2017-12-04T02:31:26.178Z,1021.02
2017-12-04T02:31:26.779Z,1021.02
2017-12-04T02:31:27.376Z,1020.99
2017-12-04T02:32:20.857Z,1021.04
2017-12-04T02:32:21.432Z,1021.04
2017-12-04T02:32:22.032Z,1021.02
2017-12-04T02:32:22.630Z,1020.98
2017-12-04T02:32:23.231Z,1021.04
2017-12-04T02:32:23.831Z,1021.06
2017-12-04T02:32:24.431Z,1021.05
2017-12-04T02:32:25.031Z,1021.04
2017-12-04T02:33:19.532Z,1021.05
2017-12-04T02:33:20.105Z,1021.03
2017-12-04T02:33:20.706Z,1021.04
2017-12-04T02:33:21.306Z,1021.01
2017-12-04T02:33:21.905Z,1021.06
2017-12-04T02:33:22.506Z,1021.03
2017-12-04T02:33:23.107Z,1021.06
2017-12-04T02:33:23.705Z,1021.03
2017-12-04T02:52:16.995Z,1021.16
2017-12-04T02:52:17.576Z,1021.14
2017-12-04T02:52:18.169Z,1021.15
2017-12-04T02:52:18.768Z,1021.15
2017-12-04T02:52:19.368Z,1021.17
2017-12-04T02:52:19.968Z,1021.13
2017-12-04T02:52:20.569Z,1021.15
2017-12-04T02:52:21.167Z,1021.15
2017-12-04T02:53:14.648Z,1021.23
2017-12-04T02:53:15.222Z,1021.18
2017-12-04T02:53:15.822Z,1021.18
2017-12-04T02:53:16.423Z,1021.20
2017-12-04T02:53:17.021Z,1021.17
2017-12-04T02:53:17.622Z,1021.22
2017-12-04T02:53:18.221Z,1021.16
2017-12-04T02:53:18.824Z,1021.15
2017-12-04T02:54:12.300Z,1021.29
2017-12-04T02:54:12.875Z,1021.29
2017-12-04T02:54:13.474Z,1021.28
2017-12-04T02:54:14.075Z,1021.33
2017-12-04T02:54:14.674Z,1021.31
2017-12-04T02:54:15.273Z,1021.31
2017-12-04T02:54:15.873Z,1021.33
2017-12-04T02:54:16.475Z,1021.31
2017-12-04T02:55:09.952Z,1021.34
2017-12-04T02:55:10.526Z,1021.32
2017-12-04T02:55:11.127Z,1021.36
2017-12-04T02:55:11.727Z,1021.37
2017-12-04T02:55:12.325Z,1021.34
2017-12-04T02:55:12.926Z,1021.33
2017-12-04T02:55:13.527Z,1021.32
2017-12-04T02:55:14.126Z,1021.34
2017-12-04T02:56:07.603Z,1021.21
2017-12-04T02:56:08.181Z,1021.22
2017-12-04T02:56:08.779Z,1021.20
2017-12-04T02:56:09.380Z,1021.22
2017-12-04T02:56:09.979Z,1021.22
2017-12-04T02:56:10.579Z,1021.23
2017-12-04T02:56:11.177Z,1021.20
2017-12-04T02:56:11.786Z,1021.24
2017-12-04T02:57:05.264Z,1021.25
2017-12-04T02:57:05.831Z,1021.21
2017-12-04T02:57:06.431Z,1021.28
2017-12-04T02:57:07.030Z,1021.25
2017-12-04T02:57:07.633Z,1021.26
2017-12-04T02:57:08.229Z,1021.23
2017-12-04T02:57:08.838Z,1021.29
2017-12-04T02:57:09.430Z,1021.30
2017-12-04T02:58:02.909Z,1021.37
2017-12-04T02:58:03.482Z,1021.31
2017-12-04T02:58:04.082Z,1021.30
2017-12-04T02:58:04.682Z,1021.31
2017-12-04T02:58:05.282Z,1021.31
2017-12-04T02:58:05.882Z,1021.32
2017-12-04T02:58:06.482Z,1021.32
2017-12-04T02:58:07.082Z,1021.33
2017-12-04T02:59:00.560Z,1021.39
2017-12-04T02:59:01.135Z,1021.41
2017-12-04T02:59:01.734Z,1021.41
2017-12-04T02:59:02.334Z,1021.43
2017-12-04T02:59:02.933Z,1021.38
2017-12-04T02:59:03.532Z,1021.39
2017-12-04T02:59:04.133Z,1021.45
2017-12-04T02:59:04.733Z,1021.41
2017-12-04T02:59:59.236Z,1021.41
2017-12-04T02:59:59.810Z,1021.43
2017-12-04T03:00:00.413Z,1021.42
2017-12-04T03:00:01.008Z,1021.45
2017-12-04T03:00:01.608Z,1021.41
2017-12-04T03:00:02.208Z,1021.44
2017-12-04T03:00:02.808Z,1021.39
2017-12-04T03:00:03.409Z,1021.41
2017-12-04T03:00:57.911Z,1021.43
2017-12-04T03:00:58.485Z,1021.42
2017-12-04T03:00:59.085Z,1021.41
2017-12-04T03:00:59.685Z,1021.42
2017-12-04T03:01:00.284Z,1021.41
2017-12-04T03:01:00.884Z,1021.44
2017-12-04T03:01:01.485Z,1021.45
2017-12-04T03:01:02.084Z,1021.44
2017-12-04T03:01:56.586Z,1021.53
2017-12-04T03:01:57.162Z,1021.53
2017-12-04T03:01:57.762Z,1021.52
2017-12-04T03:01:58.361Z,1021.54
2017-12-04T03:01:58.960Z,1021.54
2017-12-04T03:01:59.562Z,1021.51
2017-12-04T03:02:00.162Z,1021.51
2017-12-04T03:02:00.760Z,1021.53
2017-12-04T03:02:55.263Z,1021.54
2017-12-04T03:02:55.837Z,1021.51
2017-12-04T03:02:56.437Z,1021.51
2017-12-04T03:02:57.036Z,1021.53
2017-12-04T03:02:57.636Z,1021.52
2017-12-04T03:02:58.237Z,1021.53
2017-12-04T03:02:58.840Z,1021.52
2017-12-04T03:02:59.436Z,1021.50
2017-12-04T03:03:52.914Z,1021.52
2017-12-04T03:03:53.489Z,1021.51
2017-12-04T03:03:54.088Z,1021.53
2017-12-04T03:03:54.689Z,1021.53
2017-12-04T03:03:55.288Z,1021.48
2017-12-04T03:03:55.889Z,1021.52
2017-12-04T03:03:56.489Z,1021.50
2017-12-04T03:03:57.088Z,1021.51
2017-12-04T03:04:50.566Z,1021.53
2017-12-04T03:04:51.142Z,1021.55
2017-12-04T03:04:51.742Z,1021.53
2017-12-04T03:04:52.342Z,1021.52
2017-12-04T03:04:52.944Z,1021.52
2017-12-04T03:04:53.540Z,1021.48
2017-12-04T03:04:54.142Z,1021.50
2017-12-04T03:04:54.746Z,1021.50
2017-12-04T03:05:48.218Z,1021.49
2017-12-04T03:05:48.793Z,1021.48
2017-12-04T03:05:49.392Z,1021.48
2017-12-04T03:05:49.994Z,1021.48
2017-12-04T03:05:50.594Z,1021.49
2017-12-04T03:05:51.193Z,1021.46
2017-12-04T03:05:51.797Z,1021.43
2017-12-04T03:05:52.471Z,1021.48
2017-12-04T03:06:45.871Z,1021.51
2017-12-04T03:06:46.448Z,1021.51
2017-12-04T03:06:47.046Z,1021.51
2017-12-04T03:06:47.645Z,1021.53
2017-12-04T03:06:48.244Z,1021.53
2017-12-04T03:06:48.845Z,1021.50
2017-12-04T03:06:49.446Z,1021.51
2017-12-04T03:06:50.043Z,1021.49
2017-12-04T03:07:43.523Z,1021.58
2017-12-04T03:07:44.099Z,1021.59
2017-12-04T03:07:44.697Z,1021.59
2017-12-04T03:07:45.295Z,1021.58
2017-12-04T03:07:45.897Z,1021.56
2017-12-04T03:07:46.497Z,1021.59
2017-12-04T03:07:47.097Z,1021.55
2017-12-04T03:07:47.695Z,1021.56
2017-12-04T03:08:42.198Z,1021.52
2017-12-04T03:08:42.772Z,1021.48
2017-12-04T03:08:43.378Z,1021.52
2017-12-04T03:08:43.972Z,1021.51
2017-12-04T03:08:44.572Z,1021.51
2017-12-04T03:08:45.170Z,1021.51
2017-12-04T03:08:45.775Z,1021.50
2017-12-04T03:08:46.371Z,1021.47
2017-12-04T03:09:52.545Z,1021.55
2017-12-04T03:09:53.119Z,1021.55
2017-12-04T03:09:53.720Z,1021.53
2017-12-04T03:09:54.323Z,1021.52
2017-12-04T03:09:54.919Z,1021.51
2017-12-04T03:09:55.518Z,1021.54
2017-12-04T03:09:56.127Z,1021.53
2017-12-04T03:09:56.720Z,1021.53
2017-12-04T03:10:51.222Z,1021.51
2017-12-04T03:10:51.798Z,1021.53
2017-12-04T03:10:52.395Z,1021.51
2017-12-04T03:10:52.995Z,1021.50
2017-12-04T03:10:53.595Z,1021.51
2017-12-04T03:10:54.196Z,1021.50
2017-12-04T03:10:54.799Z,1021.47
2017-12-04T03:10:55.398Z,1021.47
2017-12-04T03:11:49.903Z,1021.42
2017-12-04T03:11:50.472Z,1021.39
2017-12-04T03:11:51.072Z,1021.39
2017-12-04T03:11:51.684Z,1021.39
2017-12-04T03:11:52.272Z,1021.38
2017-12-04T03:11:52.871Z,1021.36
2017-12-04T03:11:53.474Z,1021.38
2017-12-04T03:11:54.071Z,1021.37
2017-12-04T03:12:47.551Z,1021.31
2017-12-04T03:12:48.126Z,1021.34
2017-12-04T03:12:48.724Z,1021.29
2017-12-04T03:12:49.323Z,1021.31
2017-12-04T03:12:49.923Z,1021.29
2017-12-04T03:12:50.530Z,1021.30
2017-12-04T03:12:51.126Z,1021.27
2017-12-04T03:12:51.722Z,1021.29
2017-12-04T03:13:45.210Z,1021.29
2017-12-04T03:13:45.778Z,1021.33
2017-12-04T03:13:46.375Z,1021.37
2017-12-04T03:13:46.976Z,1021.33
2017-12-04T03:13:47.577Z,1021.34
2017-12-04T03:13:48.176Z,1021.34
2017-12-04T03:13:48.778Z,1021.30
2017-12-04T03:13:49.380Z,1021.32
2017-12-04T03:14:42.852Z,1021.30
2017-12-04T03:14:43.427Z,1021.29
2017-12-04T03:14:44.028Z,1021.35
2017-12-04T03:14:44.636Z,1021.31
2017-12-04T03:14:45.227Z,1021.30
2017-12-04T03:14:45.828Z,1021.30
2017-12-04T03:14:46.427Z,1021.30
2017-12-04T03:14:47.027Z,1021.27
2017-12-04T03:15:40.509Z,1021.25
2017-12-04T03:15:41.089Z,1021.27
2017-12-04T03:15:41.681Z,1021.28
2017-12-04T03:15:42.280Z,1021.25
2017-12-04T03:15:42.879Z,1021.24
2017-12-04T03:15:43.479Z,1021.24
2017-12-04T03:15:44.079Z,1021.25
2017-12-04T03:15:44.679Z,1021.24
2017-12-04T03:16:38.157Z,1021.24
2017-12-04T03:16:38.731Z,1021.21
2017-12-04T03:16:39.333Z,1021.26
2017-12-04T03:16:39.931Z,1021.22
2017-12-04T03:16:40.532Z,1021.24
2017-12-04T03:16:41.130Z,1021.21
2017-12-04T03:16:41.732Z,1021.24
2017-12-04T03:16:42.330Z,1021.22
2017-12-04T03:17:35.809Z,1021.21
2017-12-04T03:17:36.384Z,1021.18
2017-12-04T03:17:36.982Z,1021.18
2017-12-04T03:17:37.582Z,1021.19
2017-12-04T03:17:38.182Z,1021.20
2017-12-04T03:17:38.782Z,1021.20
2017-12-04T03:17:39.383Z,1021.19
2017-12-04T03:17:39.982Z,1021.15
2017-12-04T03:18:33.459Z,1021.16
2017-12-04T03:18:34.035Z,1021.20
2017-12-04T03:18:34.639Z,1021.16
2017-12-04T03:18:35.234Z,1021.19
2017-12-04T03:18:35.834Z,1021.18
2017-12-04T03:18:36.433Z,1021.18
2017-12-04T03:18:37.037Z,1021.23
2017-12-04T03:18:37.634Z,1021.19
2017-12-04T03:19:31.114Z,1021.22
2017-12-04T03:19:31.686Z,1021.22
2017-12-04T03:19:32.286Z,1021.21
2017-12-04T03:19:32.890Z,1021.22
2017-12-04T03:19:33.486Z,1021.18
2017-12-04T03:19:34.085Z,1021.19
2017-12-04T03:19:34.686Z,1021.21
2017-12-04T03:19:35.286Z,1021.23
2017-12-04T03:20:29.787Z,1021.27
2017-12-04T03:20:30.361Z,1021.25
2017-12-04T03:20:30.961Z,1021.21
2017-12-04T03:20:31.560Z,1021.21
2017-12-04T03:20:32.161Z,1021.28
2017-12-04T03:20:32.761Z,1021.23
2017-12-04T03:20:33.365Z,1021.21
2017-12-04T03:20:33.960Z,1021.21
2017-12-04T03:21:27.439Z,1021.28
2017-12-04T03:21:28.013Z,1021.26
2017-12-04T03:21:28.614Z,1021.28
2017-12-04T03:21:29.213Z,1021.24
2017-12-04T03:21:29.814Z,1021.25
2017-12-04T03:21:30.413Z,1021.28
2017-12-04T03:21:31.013Z,1021.29
2017-12-04T03:21:31.613Z,1021.28
2017-12-04T03:22:25.091Z,1021.26
2017-12-04T03:22:25.664Z,1021.27
2017-12-04T03:22:26.264Z,1021.29
2017-12-04T03:22:26.864Z,1021.25
2017-12-04T03:22:27.464Z,1021.23
2017-12-04T03:22:28.064Z,1021.22
2017-12-04T03:22:28.664Z,1021.26
2017-12-04T03:22:29.263Z,1021.29
2017-12-04T03:23:23.767Z,1021.26
2017-12-04T03:23:24.340Z,1021.26
2017-12-04T03:23:24.939Z,1021.25
2017-12-04T03:23:25.542Z,1021.27
2017-12-04T03:23:26.141Z,1021.25
2017-12-04T03:23:26.740Z,1021.24
2017-12-04T03:23:27.339Z,1021.32